Terminal Aerodrome Forecast
Issued by NWS

Home | Current Version | Previous Version | Text Only | Print | Product List | Glossary On
Versions: 1 2 3 4 5 6 7 8 9 10 11 12
341
FTUS45 KABQ 131740
TAFLVS
TAF
KLVS 131740Z 1318/1418 05012G20KT P6SM FEW200
     FM132100 12011KT P6SM SCT200
     FM140100 18009KT P6SM BKN200
     FM141100 14010KT P6SM BKN120
     FM141400 06011KT P6SM VCSH BKN040=

USA.gov is the U.S. government's official web portal to all federal, state and local government web resources and services.